Pagrindinis puslapis
METAR-TAF:

METAR-TAF

Oro uostai :

Dijarbakyras, Turkija

platuma: 37-53N, ilguma: 040-11E, Aukštis: 686 m

Dabartinis oras

Ataskaita buvo paskelbta 54 minutes, ne 15:20 UTC
Vėjas 3 kt iš Pietų, svyruoja nuo Pietų/Pietryčių ir Pietvakarių
Temperatūra 25°C
Drėgmė 44%
Slėgis 1014 hPa
Matomumas 10 km arba daugiau
nėra debesų žemiau 1500 m ir nėra kamuolinių lietaus debesų

METAR: LTCC 241520Z 19003KT 160V220 CAVOK 25/12 Q1014 NOSIG RMK RWY16 19004KT SKC

Laikas: 19:14 (16:14 UTC)

Prognozė

Ataskaita buvo paskelbta 5 valandos ir 34 minutes, ne 10:40 UTC
Prognozė galioja nuo 24 metu 12 UTC su 25 metu 12 UTC
Vėjas 2 kt nuo kintamojo kryptimis
Matomumas 10 km arba daugiau
nėra debesų žemiau 1500 m ir nėra kamuolinių lietaus debesų

TAF: LTCC 241040Z 2412/2512 VRB02KT CAVOK

Orai ataskaitas ir orų prognozės (METAR, TAF).

turimą stotys yra geltonos ir raudonos taškus žemėlapyje.

Perkelti pele per norėdami pamatyti stoties vardą.

Tada spustelėkite, norėdami matyti oro stebėjimo ir prognozės.

Norėdami pakeisti žemėlapį: spustelėkite ant žalios mygtukų su juodo kryžiaus žemyn,; žalią mygtuką su brūkšneliu, jei norite nutolinti; arba žalių rodyklių gretimoms žemėlapius.


METAR-TAF: